createdAt,value
2023-02-03T00:01:20.302Z,6.13
2023-02-03T00:04:28.297Z,6.40
2023-02-03T00:07:50.358Z,6.15
2023-02-03T00:10:53.030Z,8.50
2023-02-03T00:14:07.355Z,5.55
2023-02-03T00:17:15.297Z,4.73
2023-02-03T00:20:24.752Z,3.97
2023-02-03T00:23:40.288Z,4.93
2023-02-03T00:26:43.196Z,7.20
2023-02-03T00:29:58.348Z,4.80
2023-02-03T00:33:00.246Z,4.43
2023-02-03T00:36:16.304Z,3.30
2023-02-03T00:39:25.362Z,3.95
2023-02-03T00:42:35.853Z,6.72
2023-02-03T00:45:44.333Z,7.50
2023-02-03T00:48:53.268Z,8.07
2023-02-03T00:52:01.373Z,6.87
2023-02-03T00:55:10.003Z,4.57
2023-02-03T00:58:18.344Z,6.60
2023-02-03T01:01:33.624Z,4.35
2023-02-03T01:04:35.702Z,4.03
2023-02-03T01:07:57.342Z,7.07
2023-02-03T01:11:09.387Z,5.57
2023-02-03T01:14:17.334Z,4.97
2023-02-03T01:17:26.165Z,6.20
2023-02-03T01:20:34.393Z,4.93
2023-02-03T01:23:50.336Z,4.50
2023-02-03T01:26:52.221Z,5.70
2023-02-03T01:30:07.361Z,4.90
2023-02-03T01:33:09.317Z,4.57
2023-02-03T01:36:25.417Z,5.67
2023-02-03T01:39:34.265Z,4.10
2023-02-03T01:42:42.361Z,5.90
2023-02-03T01:45:57.397Z,5.28
2023-02-03T01:49:19.917Z,6.35
2023-02-03T01:52:28.352Z,6.37
2023-02-03T01:55:49.359Z,6.63
2023-02-03T01:58:51.850Z,8.27
2023-02-03T02:02:07.404Z,5.72
2023-02-03T02:05:16.261Z,4.40
2023-02-03T02:08:38.419Z,6.27
2023-02-03T02:11:53.402Z,8.30
2023-02-03T02:15:03.096Z,8.50
2023-02-03T02:18:35.345Z,6.32
2023-02-03T02:21:56.581Z,6.70
2023-02-03T02:25:31.371Z,7.97
2023-02-03T02:29:00.389Z,3.50
2023-02-03T02:32:34.318Z,6.75
2023-02-03T02:36:16.435Z,4.72
2023-02-03T02:39:54.452Z,5.15
2023-02-03T02:43:29.394Z,5.43
2023-02-03T02:46:44.439Z,5.27
2023-02-03T02:50:13.440Z,7.12
2023-02-03T02:53:24.441Z,7.37
2023-02-03T02:56:36.496Z,5.20
2023-02-03T02:59:44.376Z,6.20
2023-02-03T03:02:59.377Z,5.03
2023-02-03T03:06:12.379Z,4.68
2023-02-03T03:09:32.375Z,4.00
2023-02-03T03:12:38.036Z,3.45
2023-02-03T03:15:52.421Z,6.10
2023-02-03T03:19:07.359Z,7.07
2023-02-03T03:22:27.444Z,4.28
2023-02-03T03:25:45.351Z,5.00
2023-02-03T03:29:03.726Z,4.45
2023-02-03T03:32:12.377Z,5.20
2023-02-03T03:35:21.131Z,5.43
2023-02-03T03:38:37.391Z,5.93
2023-02-03T03:42:03.211Z,6.40
2023-02-03T03:45:21.369Z,6.00
2023-02-03T03:48:53.458Z,3.73
2023-02-03T03:52:01.319Z,4.40
2023-02-03T03:55:19.466Z,5.75
2023-02-03T03:58:27.902Z,4.62
2023-02-03T04:01:43.555Z,4.80
2023-02-03T04:04:48.088Z,5.03
2023-02-03T04:08:09.434Z,4.17
2023-02-03T04:11:18.387Z,6.90
2023-02-03T04:14:34.409Z,5.18
2023-02-03T04:17:36.257Z,5.35
2023-02-03T04:20:51.441Z,7.27
2023-02-03T04:23:59.424Z,6.47
2023-02-03T04:27:09.151Z,3.90
2023-02-03T04:30:18.458Z,4.03
2023-02-03T04:33:27.180Z,4.20
2023-02-03T04:36:35.398Z,4.03
2023-02-03T04:39:44.626Z,5.43
2023-02-03T04:42:59.384Z,5.10
2023-02-03T04:46:07.479Z,8.18
2023-02-03T04:49:16.046Z,3.55
2023-02-03T04:52:30.567Z,5.33
2023-02-03T04:55:32.571Z,7.27
2023-02-03T04:58:47.496Z,4.43
2023-02-03T05:01:55.418Z,5.85
2023-02-03T05:05:04.368Z,7.47
2023-02-03T05:08:19.479Z,9.60
2023-02-03T05:11:28.558Z,8.13
2023-02-03T05:14:37.399Z,5.18
2023-02-03T05:17:52.448Z,5.32
2023-02-03T05:21:01.379Z,5.10
2023-02-03T05:24:09.463Z,6.07
2023-02-03T05:27:18.119Z,4.97
2023-02-03T05:30:26.896Z,4.68
2023-02-03T05:33:35.152Z,7.25
2023-02-03T05:36:43.528Z,3.05
2023-02-03T05:39:58.492Z,4.87
2023-02-03T05:43:06.462Z,5.53
2023-02-03T05:46:21.471Z,5.82
2023-02-03T05:49:24.366Z,7.72
2023-02-03T05:52:40.483Z,8.52
2023-02-03T05:55:42.320Z,5.77
2023-02-03T05:58:57.441Z,6.53
2023-02-03T06:02:06.429Z,5.07
2023-02-03T06:05:15.128Z,3.83
2023-02-03T06:08:32.955Z,7.20
2023-02-03T06:11:41.292Z,4.57
2023-02-03T06:14:49.443Z,7.90
2023-02-03T06:17:58.108Z,4.80
2023-02-03T06:21:13.411Z,6.57
2023-02-03T06:24:21.440Z,5.93
2023-02-03T06:27:30.153Z,5.87
2023-02-03T06:30:38.548Z,4.30
2023-02-03T06:33:47.092Z,4.70
2023-02-03T06:36:55.469Z,7.82
2023-02-03T06:40:11.573Z,4.78
2023-02-03T06:43:20.488Z,9.13
2023-02-03T06:46:35.517Z,4.90
2023-02-03T06:49:44.064Z,7.93
2023-02-03T06:52:52.636Z,6.75
2023-02-03T06:56:01.235Z,5.10
2023-02-03T06:59:13.559Z,7.27
2023-02-03T07:02:22.402Z,3.83
2023-02-03T07:05:37.537Z,11.98
2023-02-03T07:08:52.525Z,5.40
2023-02-03T07:12:01.531Z,8.13
2023-02-03T07:15:17.765Z,3.83
2023-02-03T07:21:55.691Z,4.00
2023-02-03T07:25:11.488Z,6.97
2023-02-03T07:28:23.289Z,5.95
2023-02-03T07:31:31.772Z,3.33
2023-02-03T07:34:46.528Z,4.83
2023-02-03T07:37:54.502Z,6.75
2023-02-03T07:41:10.529Z,4.10
2023-02-03T07:44:12.909Z,5.97
2023-02-03T07:47:27.535Z,7.47
2023-02-03T07:50:36.743Z,5.90
2023-02-03T07:53:45.571Z,8.02
2023-02-03T07:57:00.499Z,12.55
2023-02-03T08:00:03.581Z,6.50
2023-02-03T08:03:20.499Z,7.20
2023-02-03T08:06:23.110Z,7.23
2023-02-03T08:09:44.485Z,7.75
2023-02-03T08:13:01.528Z,6.80
2023-02-03T08:16:11.350Z,6.95
2023-02-03T08:19:26.485Z,4.67
2023-02-03T08:22:35.296Z,6.57
2023-02-03T08:25:43.532Z,9.80
2023-02-03T08:28:59.508Z,6.32
2023-02-03T08:32:11.811Z,8.32
2023-02-03T08:35:24.568Z,5.70
2023-02-03T08:39:04.925Z,11.63
2023-02-03T08:42:20.493Z,7.97
2023-02-03T08:45:35.674Z,5.35
2023-02-03T08:48:44.547Z,7.22
2023-02-03T08:51:54.069Z,6.37
2023-02-03T08:55:03.612Z,8.87
2023-02-03T08:58:18.654Z,8.25
2023-02-03T09:01:33.582Z,13.65
2023-02-03T09:04:35.535Z,10.18
2023-02-03T09:07:52.288Z,11.17
2023-02-03T09:10:57.405Z,9.30
2023-02-03T09:14:12.543Z,9.35
2023-02-03T09:17:14.707Z,12.88
2023-02-03T09:20:30.015Z,12.27
2023-02-03T09:23:32.662Z,10.10
2023-02-03T09:26:47.550Z,18.67
2023-02-03T09:29:55.648Z,12.82
2023-02-03T09:33:04.192Z,9.68
2023-02-03T09:36:13.525Z,15.98
2023-02-03T09:39:23.296Z,10.77
2023-02-03T09:42:48.519Z,13.03
2023-02-03T09:46:05.586Z,7.55
2023-02-03T09:49:35.608Z,12.77
2023-02-03T09:52:51.535Z,7.50
2023-02-03T09:55:54.885Z,12.30
2023-02-03T09:59:11.604Z,13.03
2023-02-03T10:03:11.557Z,14.07
2023-02-03T10:06:43.532Z,11.63
2023-02-03T10:10:38.555Z,10.27
2023-02-03T10:14:16.572Z,50.83
2023-02-03T10:17:40.499Z,31.83
2023-02-03T10:21:01.568Z,12.95
2023-02-03T10:24:10.347Z,13.38
2023-02-03T10:27:29.548Z,9.07
2023-02-03T10:30:46.678Z,12.40
2023-02-03T10:34:00.419Z,11.43
2023-02-03T10:37:32.580Z,11.68
2023-02-03T10:40:47.589Z,12.50
2023-02-03T10:43:51.903Z,15.07
2023-02-03T10:47:06.554Z,14.37
2023-02-03T10:50:29.427Z,12.47
2023-02-03T10:53:34.921Z,27.90
2023-02-03T10:56:49.589Z,13.65
2023-02-03T11:00:22.342Z,10.48
2023-02-03T11:03:35.573Z,11.77
2023-02-03T11:10:39.239Z,11.70
2023-02-03T11:13:58.712Z,11.98
2023-02-03T11:17:07.782Z,12.48
2023-02-03T11:20:23.692Z,11.87
2023-02-03T11:23:26.095Z,11.43
2023-02-03T11:26:46.584Z,15.90
2023-02-03T11:30:00.568Z,14.10
2023-02-03T11:33:19.881Z,14.02
2023-02-03T11:36:29.591Z,10.30
2023-02-03T11:39:38.252Z,10.73
2023-02-03T11:42:48.571Z,9.82
2023-02-03T11:46:10.829Z,11.32
2023-02-03T11:49:34.479Z,9.65
2023-02-03T11:53:10.651Z,10.57
2023-02-03T11:56:53.558Z,9.03
2023-02-03T12:00:10.059Z,6.57
2023-02-03T12:03:44.628Z,9.07
2023-02-03T12:07:08.565Z,8.68
2023-02-03T12:10:40.572Z,5.77
2023-02-03T12:14:12.702Z,7.07
2023-02-03T12:17:41.623Z,7.30
2023-02-03T12:21:19.672Z,9.55
2023-02-03T12:24:54.558Z,8.43
2023-02-03T12:28:33.761Z,9.00
2023-02-03T12:31:53.649Z,6.50
2023-02-03T12:35:20.791Z,7.62
2023-02-03T12:38:45.604Z,6.05
2023-02-03T12:42:01.716Z,6.37
2023-02-03T12:45:24.614Z,6.00
2023-02-03T12:48:59.657Z,6.03
2023-02-03T12:52:24.320Z,6.28
2023-02-03T12:55:48.662Z,6.32
2023-02-03T12:59:09.660Z,6.05
2023-02-03T13:02:28.722Z,6.50
2023-02-03T13:05:44.944Z,8.43
2023-02-03T13:09:09.605Z,6.90
2023-02-03T13:12:47.848Z,8.70
2023-02-03T13:15:57.611Z,7.47
2023-02-03T13:19:53.673Z,6.47
2023-02-03T13:23:07.840Z,7.30
2023-02-03T13:26:52.644Z,10.82
2023-02-03T13:30:18.667Z,9.77
2023-02-03T13:33:56.638Z,8.63
2023-02-03T13:37:23.606Z,7.80
2023-02-03T13:40:58.627Z,8.70
2023-02-03T13:44:12.840Z,11.52
2023-02-03T13:47:27.775Z,11.60
2023-02-03T13:50:38.613Z,8.50
2023-02-03T13:53:50.592Z,8.77
2023-02-03T13:57:02.486Z,11.57
2023-02-03T14:00:33.661Z,10.82
2023-02-03T14:03:44.258Z,10.23
2023-02-03T14:07:06.634Z,13.15
2023-02-03T14:10:32.183Z,10.33
2023-02-03T14:13:40.640Z,13.73
2023-02-03T14:16:54.691Z,11.07
2023-02-03T14:20:03.762Z,14.75
2023-02-03T14:23:19.652Z,12.85
2023-02-03T14:26:41.726Z,12.53
2023-02-03T14:30:19.630Z,12.20
2023-02-03T14:33:50.188Z,13.40
2023-02-03T14:37:20.619Z,12.30
2023-02-03T14:40:43.689Z,12.90
2023-02-03T14:44:07.130Z,9.63
2023-02-03T14:47:40.653Z,14.83
2023-02-03T14:51:12.733Z,15.48
2023-02-03T14:54:41.196Z,13.75
2023-02-03T14:58:00.745Z,13.38
2023-02-03T15:01:25.016Z,11.80
2023-02-03T15:04:33.695Z,12.63
2023-02-03T15:07:56.689Z,12.48
2023-02-03T15:11:31.621Z,13.55
2023-02-03T15:14:46.640Z,12.65
2023-02-03T15:17:50.137Z,15.90
2023-02-03T15:21:05.652Z,16.63
2023-02-03T15:24:16.808Z,13.45
2023-02-03T15:27:34.647Z,13.98
2023-02-03T15:30:37.076Z,11.43
2023-02-03T15:33:53.632Z,10.80
2023-02-03T15:37:00.265Z,12.10
2023-02-03T15:40:22.695Z,13.90
2023-02-03T15:43:39.705Z,12.85
2023-02-03T15:46:58.819Z,14.35
2023-02-03T15:50:13.673Z,17.13
2023-02-03T15:53:45.338Z,12.43
2023-02-03T15:57:01.695Z,13.30
2023-02-03T16:00:28.719Z,12.27
2023-02-03T16:03:48.720Z,11.02
2023-02-03T16:07:04.676Z,11.23
2023-02-03T16:10:31.256Z,7.62
2023-02-03T16:13:49.722Z,9.90
2023-02-03T16:17:05.312Z,5.57
2023-02-03T16:20:31.852Z,5.90
2023-02-03T16:23:33.861Z,6.55
2023-02-03T16:26:48.698Z,8.75
2023-02-03T16:30:28.651Z,3.83
2023-02-03T16:33:38.695Z,3.78
2023-02-03T16:36:55.424Z,4.07
2023-02-03T16:40:03.747Z,4.03
2023-02-03T16:43:21.688Z,4.37
2023-02-03T16:46:29.702Z,4.70
2023-02-03T16:49:44.685Z,3.85
2023-02-03T16:52:46.536Z,4.45
2023-02-03T16:56:03.677Z,4.03
2023-02-03T16:59:12.324Z,3.60
2023-02-03T17:02:20.814Z,6.20
2023-02-03T17:05:29.622Z,5.37
2023-02-03T17:08:46.761Z,5.68
2023-02-03T17:11:55.685Z,5.68
2023-02-03T17:15:06.482Z,5.78
2023-02-03T17:18:17.722Z,5.27
2023-02-03T17:21:35.730Z,4.37
2023-02-03T17:24:37.779Z,4.82
2023-02-03T17:27:53.782Z,5.22
2023-02-03T17:31:06.337Z,5.40
2023-02-03T17:34:20.676Z,5.47
2023-02-03T17:37:22.568Z,4.72
2023-02-03T17:54:24.368Z,7.35
2023-02-03T17:57:38.734Z,7.80
2023-02-03T18:00:47.096Z,4.60
2023-02-03T18:04:04.753Z,5.82
2023-02-03T18:07:07.949Z,4.53
2023-02-03T18:10:29.943Z,7.40
2023-02-03T18:13:35.077Z,4.60
2023-02-03T18:16:50.690Z,6.80
2023-02-03T18:19:58.734Z,6.55
2023-02-03T18:23:07.909Z,9.23
2023-02-03T18:26:17.738Z,6.03
2023-02-03T18:29:28.119Z,8.15
2023-02-03T18:32:37.042Z,5.70
2023-02-03T18:35:51.699Z,4.87
2023-02-03T18:39:00.349Z,8.73
2023-02-03T18:42:14.709Z,8.43
2023-02-03T18:45:23.557Z,5.55
2023-02-03T18:48:32.734Z,5.70
2023-02-03T18:51:48.724Z,6.82
2023-02-03T18:54:57.561Z,5.20
2023-02-03T18:58:05.744Z,5.50
2023-02-03T19:01:28.846Z,4.03
2023-02-03T19:04:46.748Z,5.37
2023-02-03T19:07:55.687Z,3.90
2023-02-03T19:11:11.169Z,7.87
2023-02-03T19:14:20.718Z,4.20
2023-02-03T19:17:29.393Z,3.83
2023-02-03T19:20:43.720Z,5.45
2023-02-03T19:23:52.777Z,5.82
2023-02-03T19:27:02.664Z,4.67
2023-02-03T19:30:11.696Z,3.40
2023-02-03T19:33:20.938Z,5.32
2023-02-03T19:36:29.750Z,4.53
2023-02-03T19:39:38.793Z,5.32
2023-02-03T19:42:47.706Z,3.97
2023-02-03T19:45:56.709Z,5.75
2023-02-03T19:49:05.757Z,6.85
2023-02-03T19:52:21.769Z,6.60
2023-02-03T19:55:23.629Z,8.27
2023-02-03T19:58:40.761Z,8.83
2023-02-03T20:01:42.729Z,8.52
2023-02-03T20:04:57.779Z,3.92
2023-02-03T20:08:06.769Z,3.92
2023-02-03T20:11:22.872Z,5.72
2023-02-03T20:14:31.793Z,5.37
2023-02-03T20:17:47.804Z,7.62
2023-02-03T20:20:57.800Z,3.70
2023-02-03T20:24:14.781Z,5.62
2023-02-03T20:27:17.091Z,4.60
2023-02-03T20:30:33.170Z,3.70
2023-02-03T20:33:42.707Z,3.78
2023-02-03T20:36:51.769Z,4.55
2023-02-03T20:40:07.813Z,4.00
2023-02-03T20:43:16.873Z,4.20
2023-02-03T20:46:33.815Z,4.10
2023-02-03T20:49:43.041Z,6.35
2023-02-03T20:52:59.765Z,4.07
2023-02-03T20:56:01.963Z,4.75
2023-02-03T20:59:18.777Z,4.20
2023-02-03T21:02:27.835Z,8.77
2023-02-03T21:05:41.795Z,3.65
2023-02-03T21:08:58.801Z,6.12
2023-02-03T21:12:12.915Z,6.72
2023-02-03T21:15:37.842Z,6.10
2023-02-03T21:18:56.818Z,7.00
2023-02-03T21:22:17.514Z,7.00
2023-02-03T21:25:38.791Z,5.90
2023-02-03T21:28:50.572Z,4.87
2023-02-03T21:32:00.826Z,6.53
2023-02-03T21:35:24.208Z,4.67
2023-02-03T21:38:35.824Z,7.00
2023-02-03T21:41:51.824Z,6.07
2023-02-03T21:45:00.757Z,6.90
2023-02-03T21:48:37.852Z,7.72
2023-02-03T21:51:40.009Z,8.90
2023-02-03T21:54:55.882Z,9.50
2023-02-03T21:58:18.656Z,7.00
2023-02-03T22:01:40.793Z,9.38
2023-02-03T22:04:49.806Z,5.93
2023-02-03T22:08:20.411Z,6.63
2023-02-03T22:11:36.851Z,8.15
2023-02-03T22:14:39.041Z,6.95
2023-02-03T22:17:56.798Z,9.32
2023-02-03T22:21:04.794Z,9.15
2023-02-03T22:24:19.799Z,9.70
2023-02-03T22:27:34.845Z,11.75
2023-02-03T22:30:36.956Z,8.45
2023-02-03T22:33:52.802Z,7.70
2023-02-03T22:37:00.844Z,11.20
2023-02-03T22:40:16.842Z,10.90
2023-02-03T22:43:26.989Z,8.52
2023-02-03T22:46:35.845Z,7.28
2023-02-03T22:49:50.841Z,11.23
2023-02-03T22:52:53.117Z,8.38
2023-02-03T22:56:07.877Z,9.33
2023-02-03T22:59:09.684Z,12.82
2023-02-03T23:02:24.832Z,11.02
2023-02-03T23:05:33.822Z,7.12
2023-02-03T23:08:50.113Z,11.00
2023-02-03T23:11:58.958Z,10.37
2023-02-03T23:15:14.831Z,13.20
2023-02-03T23:18:22.870Z,8.25
2023-02-03T23:21:37.880Z,9.05
2023-02-03T23:24:46.625Z,7.20
2023-02-03T23:27:54.852Z,11.13
2023-02-03T23:31:03.651Z,24.37
2023-02-03T23:34:11.840Z,8.30
2023-02-03T23:37:26.796Z,8.80
2023-02-03T23:40:34.844Z,6.37
2023-02-03T23:43:49.910Z,11.50
2023-02-03T23:46:51.780Z,8.57
2023-02-03T23:50:06.811Z,9.32
2023-02-03T23:53:14.873Z,10.52
2023-02-03T23:56:29.823Z,6.30
2023-02-03T23:59:32.048Z,9.60
